WetterOnline ( https://www.wetteronline.de )

Wetter aktuell Chiemgau

Aktuelles Wetter: Chieming (553m)

6-stündlich | Neueste Meldungen
Ortszeit Temperatur Wetter
Mi, 16.10. 8:00 10.7° C wolkig
Mi, 16.10. 2:00 10.6° C leichter Regen
Di, 15.10. 20:00 15.5° C wolkig
Di, 15.10. 14:00 21.5° C wolkenlos
Di, 15.10. 8:00 8.1° C wolkenlos
Di, 15.10. 2:00 11.2° C wolkig
Mo, 14.10. 20:00 14.7° C bedeckt
Mo, 14.10. 14:00 18.8° C bedeckt
Ortszeit Temperatur Wetter
Mi, 16.10. 13:00 13.4° C wolkenlos
Mi, 16.10. 12:50 13.4° C wolkenlos
Mi, 16.10. 12:40 13.4° C wolkenlos
Mi, 16.10. 12:30 13.1° C wolkenlos
Mi, 16.10. 12:20 13.1° C wolkenlos
Mi, 16.10. 12:10 13.1° C leicht bewölkt
Mi, 16.10. 12:00 12.9° C wolkig
Mi, 16.10. 11:30 12.3° C leicht bewölkt
Mi, 16.10. 11:00 11.7° C wolkig
Mi, 16.10. 10:30 11.5° C wolkig
Mi, 16.10. 10:00 11.5° C wolkig
Ortszeit Relative Feuchte Sichtweite
Mi, 16.10. 8:00 76% 40 km
Mi, 16.10. 2:00 88% 17 km
Di, 15.10. 20:00 79% 30 km
Di, 15.10. 14:00 55% 24 km
Di, 15.10. 8:00 90% 25 km
Di, 15.10. 2:00 98% 24 km
Mo, 14.10. 20:00 85% 21 km
Mo, 14.10. 14:00 73% 26 km
Ortszeit Relative Feuchte Sichtweite
Mi, 16.10. 13:00 58% 23 km
Mi, 16.10. 12:50 58% -
Mi, 16.10. 12:40 58% -
Mi, 16.10. 12:30 58% 20 km
Mi, 16.10. 12:20 58% -
Mi, 16.10. 12:10 58% -
Mi, 16.10. 12:00 59% 16 km
Mi, 16.10. 11:30 61% 15 km
Mi, 16.10. 11:00 67% 25 km
Mi, 16.10. 10:30 65% 29 km
Mi, 16.10. 10:00 67% 30 km
Ortszeit Niederschlagsmenge Niederschlagsart
Mi, 16.10. 8:00 3 l/m2 in 12 Std. Regen
Mi, 16.10. 2:00 2 l/m2 in 6 Std. Regen
Di, 15.10. 20:00 0.0 l/m2 in 12 Std. -
Di, 15.10. 14:00 0.0 l/m2 in 6 Std. -
Di, 15.10. 8:00 0.0 l/m2 in 12 Std. -
Di, 15.10. 2:00 0.0 l/m2 in 6 Std. -
Mo, 14.10. 20:00 0.1 l/m2 in 12 Std. Niederschlag
Mo, 14.10. 14:00 0.1 l/m2 in 6 Std. Niederschlag
Ortszeit Niederschlagsmenge Niederschlagsart
Mi, 16.10. 13:00 0.0 l/m2 in 1 Std. -
Mi, 16.10. 12:50 keine Meldung -
Mi, 16.10. 12:40 keine Meldung -
Mi, 16.10. 12:30 0.0 l/m2 in 1 Std. -
Mi, 16.10. 12:20 keine Meldung -
Mi, 16.10. 12:10 keine Meldung -
Mi, 16.10. 12:00 0.0 l/m2 in 1 Std. -
Mi, 16.10. 11:30 0.0 l/m2 in 1 Std. -
Mi, 16.10. 11:00 0.0 l/m2 in 1 Std. -
Mi, 16.10. 10:30 0.0 l/m2 in 1 Std. -
Mi, 16.10. 10:00 0.0 l/m2 in 1 Std. -
Ortszeit Stärke Spitze Richtung
km/h Bft. km/h Grad Sektor
Mi, 16.10. 8:00 15 3 50 230° SW
Mi, 16.10. 2:00 25 4 54 250° W
Di, 15.10. 20:00 6 1 22 120° SO
Di, 15.10. 14:00 14 3 22 90° O
Di, 15.10. 8:00 4 1 11 190° S
Di, 15.10. 2:00 4 1 11 190° S
Mo, 14.10. 20:00 7 2 11 180° S
Mo, 14.10. 14:00 4 1 11 120° SO
Ortszeit Stärke Spitze Richtung
km/h Bft. km/h Grad Sektor
Mi, 16.10. 13:00 11 2 25 270° W
Mi, 16.10. 12:50 11 2 - 270° W
Mi, 16.10. 12:40 13 3 - 270° W
Mi, 16.10. 12:30 15 3 26 260° W
Mi, 16.10. 12:20 15 3 - 260° W
Mi, 16.10. 12:10 15 3 - 260° W
Mi, 16.10. 12:00 18 3 32 270° W
Mi, 16.10. 11:30 19 3 31 260° W
Mi, 16.10. 11:00 17 3 35 250° W
Mi, 16.10. 10:30 25 4 36 250° W
Mi, 16.10. 10:00 25 4 40 250° W
Ortszeit Untergrenze Bedeckung Gattung
total tief tief mittel hoch
Mi, 16.10. 8:00 2400 m 8/8 3/8 - - -
Mi, 16.10. 2:00 1500 m 8/8 8/8 - - -
Di, 15.10. 20:00 6300 m 7/8 5/8 - - -
Di, 15.10. 14:00 - 0/8 0/8 - - -
Di, 15.10. 8:00 - 0/8 0/8 - - -
Di, 15.10. 2:00 6300 m 5/8 5/8 - - -
Mo, 14.10. 20:00 3900 m 8/8 8/8 - - -
Mo, 14.10. 14:00 4200 m 8/8 8/8 - - -
Ortszeit Bedeckungsgrad in Achtel und Wolkenuntergrenze
Mi, 16.10. 13:00 keine Wolken
Mi, 16.10. 12:50 keine Wolken
Mi, 16.10. 12:40 keine Wolken
Mi, 16.10. 12:30 keine Wolken
Mi, 16.10. 12:20 keine Wolken
Mi, 16.10. 12:10 2(1320m)
Mi, 16.10. 12:00 7(1350m)
Mi, 16.10. 11:30 2(1440m)
Mi, 16.10. 11:00 5(3000m)
Mi, 16.10. 10:30 1(1470m) 7(3000m)
Mi, 16.10. 10:00 3(1500m) 8(3000m)
Ortszeit Luftdruck NN (hPa) Tendenz (hPa in 3 Std.)
Mi, 16.10. 8:00 1017 + 1,6
Mi, 16.10. 2:00 1015 + 3,3
Di, 15.10. 20:00 1006 + 0,7
Di, 15.10. 14:00 1005 - 2,6
Di, 15.10. 8:00 1011 - 1,0
Di, 15.10. 2:00 1013 - 0,1
Mo, 14.10. 20:00 1013 0,0
Mo, 14.10. 14:00 1014 - 2,2
Ortszeit Luftdruck NN (hPa) Tendenz (hPa in 3 Std.)
Mi, 16.10. 13:00 1018 - 0,3
Mi, 16.10. 12:50 1018 keine Meldung
Mi, 16.10. 12:40 1018 keine Meldung
Mi, 16.10. 12:30 1018 - 0,1
Mi, 16.10. 12:20 1018 keine Meldung
Mi, 16.10. 12:10 1018 keine Meldung
Mi, 16.10. 12:00 1018 + 0,3
Mi, 16.10. 11:30 1019 + 0,9
Mi, 16.10. 11:00 1019 + 1,4
Mi, 16.10. 10:30 1019 + 1,4
Mi, 16.10. 10:00 1019 + 1,3
Ortszeit Schneehöhe (cm)
Mi, 16.10. 8:00 0
Mi, 16.10. 2:00 0
Di, 15.10. 20:00 0
Di, 15.10. 14:00 0
Di, 15.10. 8:00 0
Di, 15.10. 2:00 0
Mo, 14.10. 20:00 0
Mo, 14.10. 14:00 0
Ortszeit Schneehöhe (cm)
Mi, 16.10. 13:00 0
Mi, 16.10. 12:50 0
Mi, 16.10. 12:40 0
Mi, 16.10. 12:30 0
Mi, 16.10. 12:20 0
Mi, 16.10. 12:10 0
Mi, 16.10. 12:00 0
Mi, 16.10. 11:30 0
Mi, 16.10. 11:00 0
Mi, 16.10. 10:30 0
Mi, 16.10. 10:00 0
Link zu dieser Seite / Seite empfehlen

Das Wetter in ...